Time;durP1;ratioP1;P1;durP2;ratioP2;P2;SDS_P1;SDS_P2;PMS_P1;PMS_P2;Temp;Humidity;BMP_temperature;BMP_pressure;BME280_temperature;BME280_humidity;BME280_pressure;Samples;Min_cycle;Max_cycle;Signal;HPM_P1;HPM_P2
2021/01/06 00:01:33;;;;;;;13.10;8.20;;;22.40;55.00;;;;;;5070619;28;45259;-49
2021/01/06 00:03:58;;;;;;;10.15;7.93;;;22.40;55.00;;;;;;5087637;28;45292;-49
2021/01/06 00:06:29;;;;;;;11.50;7.88;;;22.40;55.00;;;;;;5071049;28;45352;-49
2021/01/06 00:08:55;;;;;;;12.13;7.55;;;22.40;55.00;;;;;;5087419;28;46256;-50
2021/01/06 00:11:22;;;;;;;10.90;7.43;;;22.40;55.00;;;;;;5070463;28;45537;-49
2021/01/06 00:13:48;;;;;;;10.70;6.85;;;22.40;55.00;;;;;;5066340;28;45459;-49
2021/01/06 00:16:14;;;;;;;10.85;7.40;;;22.40;54.90;;;;;;5050836;28;45309;-47
2021/01/06 00:18:39;;;;;;;9.50;7.22;;;22.30;54.90;;;;;;5064850;28;45326;-48
2021/01/06 00:21:05;;;;;;;11.15;7.75;;;22.40;55.00;;;;;;5069963;27;45251;-49
2021/01/06 00:23:31;;;;;;;9.52;6.80;;;22.30;54.90;;;;;;5070203;28;45355;-48
2021/01/06 00:25:56;;;;;;;11.52;8.00;;;22.30;54.90;;;;;;5087435;28;45402;-49
2021/01/06 00:28:22;;;;;;;10.25;7.13;;;22.30;54.80;;;;;;5070203;28;45546;-48
2021/01/06 00:30:50;;;;;;;11.30;7.43;;;22.30;54.90;;;;;;5070011;28;45409;-48
2021/01/06 00:33:18;;;;;;;11.07;7.40;;;22.30;54.80;;;;;;5088336;27;45306;-49
2021/01/06 00:35:49;;;;;;;9.65;6.72;;;22.30;54.80;;;;;;5090308;27;45543;-48
2021/01/06 00:38:15;;;;;;;11.52;7.43;;;22.30;54.90;;;;;;5091618;27;45311;-48
2021/01/06 00:40:40;;;;;;;11.38;7.20;;;22.30;54.80;;;;;;5090689;28;45315;-49
2021/01/06 00:43:07;;;;;;;10.98;7.25;;;22.30;54.90;;;;;;5073747;28;45318;-49
2021/01/06 00:45:33;;;;;;;10.13;7.45;;;22.30;54.80;;;;;;5074305;28;45554;-49
2021/01/06 00:47:58;;;;;;;12.02;7.50;;;22.20;54.80;;;;;;5090722;28;46438;-49
2021/01/06 00:50:28;;;;;;;10.77;7.10;;;22.20;54.70;;;;;;5090347;28;45316;-51
2021/01/06 00:53:01;;;;;;;10.50;7.20;;;22.20;54.70;;;;;;5073877;28;45286;-50
2021/01/06 00:55:27;;;;;;;9.75;7.20;;;22.20;54.70;;;;;;5073956;28;45354;-49
2021/01/06 00:57:54;;;;;;;9.65;6.28;;;22.20;54.70;;;;;;5073351;28;46916;-49
2021/01/06 01:00:20;;;;;;;10.63;7.43;;;22.20;54.60;;;;;;5073356;28;45260;-49
2021/01/06 01:02:50;;;;;;;10.50;7.47;;;22.20;54.60;;;;;;5073597;28;45303;-50
2021/01/06 01:05:20;;;;;;;9.45;6.68;;;22.20;54.70;;;;;;5074494;28;45279;-49
2021/01/06 01:07:47;;;;;;;10.57;6.53;;;22.20;54.60;;;;;;5074175;28;45310;-51
2021/01/06 01:10:27;;;;;;;9.13;6.72;;;22.20;54.50;;;;;;5073343;28;45243;-51
2021/01/06 01:12:53;;;;;;;10.02;6.80;;;22.20;54.40;;;;;;5091022;27;45417;-49
2021/01/06 01:15:21;;;;;;;11.60;7.43;;;22.20;54.30;;;;;;5073923;28;45387;-51
2021/01/06 01:17:47;;;;;;;9.82;6.53;;;22.20;54.30;;;;;;5088327;27;46484;-49
2021/01/06 01:20:13;;;;;;;9.00;6.32;;;22.20;54.20;;;;;;5089820;28;45314;-50
2021/01/06 01:22:39;;;;;;;10.95;7.43;;;22.20;54.20;;;;;;5078367;27;45332;-49
2021/01/06 01:25:05;;;;;;;9.27;6.70;;;22.20;54.20;;;;;;5086808;28;45326;-48
2021/01/06 01:27:31;;;;;;;9.68;6.90;;;22.20;54.20;;;;;;5069410;28;46514;-48
2021/01/06 01:29:56;;;;;;;8.98;6.18;;;22.20;54.10;;;;;;5086137;28;45358;-50
2021/01/06 01:32:22;;;;;;;8.35;5.45;;;22.20;54.10;;;;;;5069522;28;45346;-48
2021/01/06 01:34:47;;;;;;;9.10;6.05;;;22.20;54.10;;;;;;5069776;28;45361;-49
2021/01/06 01:37:13;;;;;;;10.60;6.85;;;22.20;54.10;;;;;;5086095;28;45345;-48
2021/01/06 01:39:38;;;;;;;10.82;6.40;;;22.20;54.00;;;;;;5069479;28;45398;-48
2021/01/06 01:42:04;;;;;;;9.38;6.38;;;22.20;54.00;;;;;;5086222;28;45288;-48
2021/01/06 01:44:30;;;;;;;7.95;6.15;;;22.20;54.00;;;;;;5069938;28;45329;-49
2021/01/06 01:46:58;;;;;;;9.40;6.20;;;22.20;54.00;;;;;;5068720;28;47049;-48
2021/01/06 01:49:37;;;;;;;10.02;6.82;;;22.20;54.00;;;;;;5070475;28;45165;-50
2021/01/06 01:52:17;;;;;;;7.57;5.45;;;22.20;54.00;;;;;;5086225;28;45364;-49
2021/01/06 01:54:42;;;;;;;10.07;7.03;;;22.10;53.90;;;;;;5085058;28;45237;-49
2021/01/06 01:57:14;;;;;;;8.65;5.80;;;22.10;53.90;;;;;;5068716;28;45378;-51
2021/01/06 01:59:42;;;;;;;8.50;5.82;;;22.10;53.90;;;;;;5072779;28;45355;-48
2021/01/06 02:02:37;;;;;;;8.43;6.15;;;22.10;53.90;;;;;;5090945;27;45274;-49
2021/01/06 02:05:10;;;;;;;8.90;6.25;;;22.10;53.80;;;;;;5070762;28;45211;-47
2021/01/06 02:07:57;;;;;;;8.52;6.18;;;22.10;53.90;;;;;;5089110;28;46257;-48
2021/01/06 02:10:29;;;;;;;9.30;6.18;;;22.10;53.70;;;;;;5089357;28;45207;-49
2021/01/06 02:13:01;;;;;;;8.15;5.65;;;22.10;53.80;;;;;;5072534;27;45497;-49
2021/01/06 02:15:36;;;;;;;8.65;6.22;;;22.10;53.70;;;;;;5072977;28;45355;-48
2021/01/06 02:18:02;;;;;;;9.57;6.05;;;22.10;53.70;;;;;;5089453;27;46428;-49
2021/01/06 02:20:28;;;;;;;7.95;5.75;;;22.10;53.70;;;;;;5072490;28;45393;-47
2021/01/06 02:22:54;;;;;;;8.23;5.85;;;22.10;53.70;;;;;;5073962;27;45361;-48
2021/01/06 02:25:21;;;;;;;8.20;6.10;;;22.00;53.70;;;;;;5052533;27;45385;-49
2021/01/06 02:27:46;;;;;;;8.80;5.82;;;22.00;53.70;;;;;;5067421;28;46073;-49
2021/01/06 02:30:13;;;;;;;7.70;5.63;;;22.00;53.60;;;;;;5085343;27;45437;-49
2021/01/06 02:32:39;;;;;;;8.15;5.85;;;22.00;53.70;;;;;;5051952;28;45217;-49
2021/01/06 02:35:07;;;;;;;8.02;5.85;;;22.00;53.60;;;;;;5052387;28;45240;-49
2021/01/06 02:37:32;;;;;;;9.40;6.18;;;22.00;53.70;;;;;;5051933;28;47326;-49
2021/01/06 02:39:58;;;;;;;8.20;6.13;;;22.00;53.60;;;;;;5051705;28;45331;-48
2021/01/06 02:42:24;;;;;;;7.80;5.93;;;22.00;53.60;;;;;;5051914;28;45401;-50
2021/01/06 02:44:50;;;;;;;8.60;5.32;;;22.00;53.60;;;;;;5052087;28;45339;-48
2021/01/06 02:47:15;;;;;;;8.38;5.65;;;22.00;53.60;;;;;;5051236;28;45554;-49
2021/01/06 02:49:41;;;;;;;10.48;5.85;;;22.00;53.50;;;;;;5051476;28;45358;-47
2021/01/06 02:52:14;;;;;;;9.15;5.85;;;22.00;53.50;;;;;;5068415;28;45110;-49
2021/01/06 02:54:40;;;;;;;8.52;5.80;;;21.90;53.50;;;;;;5068533;28;45440;-49
2021/01/06 02:57:06;;;;;;;7.70;5.72;;;22.00;53.50;;;;;;5051354;28;47193;-50
2021/01/06 02:59:36;;;;;;;9.48;5.93;;;22.00;53.50;;;;;;5064591;28;45396;-50
2021/01/06 03:02:02;;;;;;;7.53;5.03;;;21.90;53.40;;;;;;5072226;28;45346;-48
2021/01/06 03:04:29;;;;;;;8.20;5.75;;;21.90;53.40;;;;;;5088527;28;45561;-49
2021/01/06 03:06:57;;;;;;;7.25;4.72;;;22.00;53.40;;;;;;5071592;28;47320;-48
2021/01/06 03:09:38;;;;;;;6.63;4.93;;;22.00;53.30;;;;;;5088528;28;45249;-49
2021/01/06 03:12:07;;;;;;;7.53;5.65;;;22.10;53.30;;;;;;5089500;27;45469;-49
2021/01/06 03:14:33;;;;;;;9.55;5.13;;;22.10;53.30;;;;;;5088127;27;46533;-50
2021/01/06 03:16:59;;;;;;;8.18;5.55;;;22.20;53.60;;;;;;5068353;27;46569;-49
2021/01/06 03:19:25;;;;;;;8.25;6.15;;;22.20;53.30;;;;;;5086248;28;45274;-47
2021/01/06 03:21:51;;;;;;;7.40;5.28;;;22.30;53.00;;;;;;5068506;27;45572;-48
2021/01/06 03:24:17;;;;;;;8.20;5.47;;;22.30;52.90;;;;;;5073638;27;45358;-48
2021/01/06 03:26:43;;;;;;;9.20;5.00;;;22.30;52.80;;;;;;5073233;27;46259;-48
2021/01/06 03:29:08;;;;;;;9.40;5.60;;;22.30;52.60;;;;;;5073457;27;45306;-48
2021/01/06 03:31:41;;;;;;;7.10;4.95;;;22.40;52.60;;;;;;5073529;27;45373;-48
2021/01/06 03:34:28;;;;;;;7.82;5.45;;;22.40;52.40;;;;;;5074273;27;45565;-48
2021/01/06 03:37:20;;;;;;;7.35;4.97;;;22.50;52.40;;;;;;5073573;27;46899;-49
2021/01/06 03:40:00;;;;;;;7.32;5.47;;;22.50;52.20;;;;;;5074373;27;45303;-49
2021/01/06 03:42:27;;;;;;;9.05;5.75;;;22.60;52.20;;;;;;5073649;27;45440;-48
2021/01/06 03:44:52;;;;;;;7.57;5.00;;;22.50;52.20;;;;;;5073674;27;45380;-49
2021/01/06 03:47:22;;;;;;;6.25;4.32;;;22.60;52.10;;;;;;5073168;27;47206;-48
2021/01/06 03:49:56;;;;;;;8.27;5.15;;;22.60;52.00;;;;;;5065423;28;45594;-49
2021/01/06 03:52:39;;;;;;;8.85;5.07;;;22.60;51.90;;;;;;5068507;28;45432;-48
2021/01/06 03:55:20;;;;;;;6.32;4.47;;;22.60;51.90;;;;;;5067868;28;45287;-49
2021/01/06 03:57:48;;;;;;;7.80;4.50;;;22.70;51.80;;;;;;5068550;28;47215;-48
2021/01/06 04:00:41;;;;;;;8.18;4.75;;;22.70;51.90;;;;;;5070419;28;45292;-47
2021/01/06 04:03:27;;;;;;;10.32;4.47;;;22.80;51.80;;;;;;5087487;28;45212;-49
2021/01/06 04:05:53;;;;;;;7.85;5.65;;;22.80;51.80;;;;;;5088017;28;45367;-47
2021/01/06 04:08:22;;;;;;;8.38;4.60;;;22.80;51.70;;;;;;5070269;28;45371;-47
2021/01/06 04:10:52;;;;;;;6.32;4.25;;;22.80;51.60;;;;;;5070458;28;45560;-48
2021/01/06 04:13:17;;;;;;;5.93;4.32;;;22.80;51.60;;;;;;5066688;28;45282;-47
2021/01/06 04:15:43;;;;;;;8.57;5.18;;;22.80;51.50;;;;;;5067342;28;45554;-49
2021/01/06 04:18:08;;;;;;;5.80;4.32;;;22.90;51.50;;;;;;5057314;28;46025;-48
2021/01/06 04:20:38;;;;;;;7.40;4.57;;;22.90;51.50;;;;;;5050439;28;45228;-48
2021/01/06 04:23:11;;;;;;;8.65;4.65;;;22.90;51.40;;;;;;5067658;27;45400;-48
2021/01/06 04:25:41;;;;;;;6.13;3.92;;;22.90;51.30;;;;;;5068200;28;45395;-47
2021/01/06 04:28:29;;;;;;;6.75;4.47;;;22.90;51.30;;;;;;5066828;28;46146;-47
2021/01/06 04:31:05;;;;;;;7.35;4.82;;;22.90;51.20;;;;;;5067847;28;45291;-49
2021/01/06 04:33:34;;;;;;;7.38;4.70;;;23.00;51.30;;;;;;5068275;28;45204;-49
2021/01/06 04:36:02;;;;;;;6.53;4.38;;;23.00;51.20;;;;;;5068475;28;45519;-49
2021/01/06 04:38:32;;;;;;;8.35;3.95;;;23.00;51.20;;;;;;5050007;28;46435;-49
2021/01/06 04:41:00;;;;;;;8.02;4.10;;;23.10;51.10;;;;;;5049756;28;45696;-50
2021/01/06 04:43:36;;;;;;;5.82;4.30;;;23.10;51.10;;;;;;5068071;28;45340;-49
2021/01/06 04:46:39;;;;;;;7.90;4.30;;;23.10;51.00;;;;;;5051012;28;45557;-49
2021/01/06 04:49:20;;;;;;;7.15;4.63;;;23.10;50.90;;;;;;5067666;28;47177;-48
2021/01/06 04:51:48;;;;;;;6.47;3.70;;;23.10;51.00;;;;;;5067692;28;45120;-48
2021/01/06 04:54:21;;;;;;;6.22;4.35;;;23.10;51.00;;;;;;5067965;28;45321;-50
2021/01/06 04:56:51;;;;;;;6.55;4.13;;;23.10;50.90;;;;;;5066812;28;45407;-48
2021/01/06 04:59:21;;;;;;;7.47;4.38;;;23.10;50.90;;;;;;5079693;28;46806;-48
2021/01/06 05:01:57;;;;;;;7.05;4.30;;;23.10;50.80;;;;;;5072207;28;45295;-48
2021/01/06 05:04:47;;;;;;;8.70;4.97;;;23.10;50.80;;;;;;5051126;28;45311;-48
2021/01/06 05:07:48;;;;;;;8.00;4.45;;;23.20;50.80;;;;;;5068154;28;45244;-49
2021/01/06 05:10:26;;;;;;;5.80;3.70;;;23.20;50.70;;;;;;5055452;28;47187;-49
2021/01/06 05:12:52;;;;;;;6.93;4.60;;;23.10;50.60;;;;;;5069489;27;45356;-49
2021/01/06 05:15:33;;;;;;;7.28;4.15;;;23.10;50.70;;;;;;5086838;28;45338;-49
2021/01/06 05:17:58;;;;;;;7.88;4.32;;;23.20;50.50;;;;;;5086324;27;45499;-48
2021/01/06 05:20:24;;;;;;;7.00;4.57;;;23.20;50.60;;;;;;5068320;27;46402;-51
2021/01/06 05:22:50;;;;;;;6.07;4.18;;;23.20;50.60;;;;;;5056475;28;46236;-49
2021/01/06 05:25:16;;;;;;;7.35;4.97;;;23.20;50.50;;;;;;5069648;27;45485;-47
2021/01/06 05:27:42;;;;;;;5.63;3.88;;;23.20;50.50;;;;;;5072805;28;45455;-48
2021/01/06 05:30:17;;;;;;;6.60;4.78;;;23.30;50.50;;;;;;5066036;28;45414;-48
2021/01/06 05:32:42;;;;;;;7.85;4.22;;;23.30;50.50;;;;;;5070684;28;45241;-49
2021/01/06 05:35:13;;;;;;;6.75;4.43;;;23.40;50.50;;;;;;5066895;28;45454;-49
2021/01/06 05:37:39;;;;;;;6.03;4.30;;;23.40;50.50;;;;;;5075895;28;45579;-51
2021/01/06 05:40:10;;;;;;;8.15;4.50;;;23.40;50.40;;;;;;5070139;28;46293;-48
2021/01/06 05:43:01;;;;;;;6.03;3.88;;;23.50;50.40;;;;;;5087688;27;45287;-50
2021/01/06 05:45:29;;;;;;;5.63;4.00;;;23.50;50.30;;;;;;5070510;28;45259;-49
2021/01/06 05:48:01;;;;;;;6.53;4.13;;;23.50;50.30;;;;;;5056312;28;45498;-50
2021/01/06 05:50:37;;;;;;;7.28;4.07;;;23.50;50.30;;;;;;5069363;28;45387;-53
2021/01/06 05:53:44;;;;;;;6.40;4.22;;;23.60;50.20;;;;;;5071412;27;45334;-51
2021/01/06 05:56:40;;;;;;;6.03;3.97;;;23.60;50.10;;;;;;5082734;27;45843;-49
2021/01/06 05:59:15;;;;;;;13.63;4.55;;;23.60;50.10;;;;;;5081675;28;45750;-50
2021/01/06 06:02:40;;;;;;;7.28;4.72;;;23.60;50.00;;;;;;5085732;27;45985;-50
2021/01/06 06:05:26;;;;;;;6.35;4.53;;;23.60;49.80;;;;;;5046739;27;45438;-49
2021/01/06 06:08:07;;;;;;;7.03;4.88;;;23.60;49.90;;;;;;5090441;27;45392;-48
2021/01/06 06:10:57;;;;;;;5.72;3.95;;;23.60;49.70;;;;;;5086470;27;45256;-49
2021/01/06 06:14:00;;;;;;;6.80;4.63;;;23.70;49.80;;;;;;5062153;27;46314;-49
2021/01/06 06:16:34;;;;;;;7.25;5.00;;;23.70;49.70;;;;;;5088147;28;45274;-48
2021/01/06 06:19:06;;;;;;;6.18;4.28;;;23.70;49.80;;;;;;5084881;27;45351;-48
2021/01/06 06:21:34;;;;;;;6.72;4.57;;;23.70;49.70;;;;;;5083673;28;45593;-48
2021/01/06 06:24:39;;;;;;;7.35;5.03;;;23.80;49.70;;;;;;5086256;27;46358;-49
2021/01/06 06:27:36;;;;;;;7.43;4.82;;;23.80;49.60;;;;;;5081134;27;45319;-47
2021/01/06 06:30:11;;;;;;;7.32;3.85;;;23.80;49.60;;;;;;5087977;28;45483;-47
2021/01/06 06:32:37;;;;;;;;;;;23.90;49.70;;;;;;5087309;27;45504;-48
2021/01/06 06:35:20;;;;;;;7.85;4.95;;;23.90;49.50;;;;;;5089959;28;46676;-47
2021/01/06 06:37:54;;;;;;;7.72;5.38;;;23.90;49.40;;;;;;5089025;28;45225;-48
2021/01/06 06:40:20;;;;;;;10.02;4.72;;;23.90;49.40;;;;;;5088984;28;45216;-48
2021/01/06 06:42:53;;;;;;;14.00;5.60;;;23.90;49.50;;;;;;5072432;28;45359;-48
2021/01/06 06:45:38;;;;;;;9.38;5.53;;;23.90;49.30;;;;;;5086965;27;46010;-48
2021/01/06 06:48:32;;;;;;;8.85;4.63;;;23.80;49.20;;;;;;5083097;28;45279;-48
2021/01/06 06:51:08;;;;;;;11.68;5.25;;;23.80;49.30;;;;;;5102619;27;45269;-48
2021/01/06 06:53:53;;;;;;;10.40;5.97;;;23.70;49.40;;;;;;5109706;27;45306;-51
2021/01/06 06:56:38;;;;;;;9.77;6.03;;;23.70;50.10;;;;;;5083507;27;45600;-49
2021/01/06 06:59:06;;;;;;;12.47;8.17;;;23.80;49.40;;;;;;5079702;28;45529;-48
2021/01/06 07:01:37;;;;;;;14.68;10.50;;;23.70;47.60;;;;;;5082993;27;45390;-49
2021/01/06 07:04:13;;;;;;;15.65;9.98;;;23.60;46.40;;;;;;5072540;28;45404;-49
2021/01/06 07:06:38;;;;;;;18.40;10.82;;;23.60;46.70;;;;;;5081189;28;47262;-48
2021/01/06 07:09:04;;;;;;;18.52;11.60;;;23.60;45.90;;;;;;5069189;28;45405;-48
2021/01/06 07:11:30;;;;;;;18.27;12.52;;;23.60;46.20;;;;;;5070472;28;45343;-48
2021/01/06 07:13:58;;;;;;;16.73;11.45;;;23.60;45.30;;;;;;5081435;27;45377;-48
2021/01/06 07:16:32;;;;;;;14.38;10.60;;;23.60;45.10;;;;;;5067603;28;46077;-49
2021/01/06 07:19:16;;;;;;;17.10;10.75;;;23.60;45.80;;;;;;5068429;27;45370;-47
2021/01/06 07:21:41;;;;;;;20.27;11.52;;;23.60;46.10;;;;;;5084178;27;45290;-48
2021/01/06 07:24:07;;;;;;;19.23;11.35;;;23.70;46.20;;;;;;5051186;28;45363;-49
2021/01/06 07:26:41;;;;;;;15.55;11.50;;;23.90;45.90;;;;;;5071895;27;46102;-49
2021/01/06 07:29:08;;;;;;;18.38;11.38;;;23.90;45.60;;;;;;5071129;28;45442;-48
2021/01/06 07:31:44;;;;;;;15.55;11.82;;;24.00;45.30;;;;;;5071116;28;45378;-49
2021/01/06 07:34:37;;;;;;;18.88;11.70;;;24.10;45.00;;;;;;5071991;28;45533;-48
2021/01/06 07:37:03;;;;;;;16.15;11.52;;;24.10;44.50;;;;;;5067283;28;46993;-49
2021/01/06 07:39:30;;;;;;;13.55;9.43;;;24.10;44.40;;;;;;5074489;27;45445;-49
2021/01/06 07:41:56;;;;;;;14.25;10.10;;;24.00;44.60;;;;;;5096475;27;45633;-50
2021/01/06 07:44:26;;;;;;;15.85;11.57;;;24.00;44.60;;;;;;5069137;28;45375;-48
2021/01/06 07:47:19;;;;;;;16.92;12.38;;;24.00;44.50;;;;;;5085901;28;47074;-47
2021/01/06 07:49:47;;;;;;;17.48;11.70;;;24.00;44.00;;;;;;5070982;28;45453;-48
2021/01/06 07:52:22;;;;;;;18.83;12.65;;;24.10;44.10;;;;;;5068003;28;45256;-47
2021/01/06 07:55:02;;;;;;;16.00;11.00;;;24.10;43.50;;;;;;5051500;28;45361;-48
2021/01/06 07:57:39;;;;;;;15.10;11.75;;;24.10;43.30;;;;;;5048703;28;45323;-49
2021/01/06 08:00:14;;;;;;;16.70;11.65;;;24.20;43.10;;;;;;5051292;28;45666;-49
2021/01/06 08:02:51;;;;;;;18.00;13.07;;;24.10;42.50;;;;;;5063845;28;45284;-48
2021/01/06 08:05:24;;;;;;;26.48;12.80;;;24.10;42.20;;;;;;5052817;28;45483;-48
2021/01/06 08:08:00;;;;;;;20.35;13.75;;;23.90;42.10;;;;;;5059837;28;45386;-50
2021/01/06 08:10:28;;;;;;;18.60;12.13;;;23.90;41.90;;;;;;5059612;28;45342;-50
2021/01/06 08:13:03;;;;;;;16.40;12.55;;;23.90;41.50;;;;;;5047981;28;45460;-50
2021/01/06 08:15:29;;;;;;;20.10;13.35;;;23.80;41.80;;;;;;5060834;28;45404;-49
2021/01/06 08:18:22;;;;;;;15.95;11.50;;;23.70;41.00;;;;;;5074708;28;46240;-49
2021/01/06 08:20:51;;;;;;;19.58;13.57;;;23.70;40.50;;;;;;5066486;28;46048;-50
2021/01/06 08:23:28;;;;;;;15.40;12.20;;;23.60;39.80;;;;;;5085021;27;45455;-50
2021/01/06 08:26:11;;;;;;;17.38;12.20;;;23.60;40.30;;;;;;5064913;28;45458;-50
2021/01/06 08:28:36;;;;;;;16.20;12.43;;;23.50;40.50;;;;;;5060348;27;47148;-50
2021/01/06 08:31:19;;;;;;;17.60;12.65;;;23.50;41.00;;;;;;5068561;28;45280;-50
2021/01/06 08:33:55;;;;;;;17.20;12.43;;;23.50;40.50;;;;;;5081772;27;45450;-50
2021/01/06 08:36:36;;;;;;;18.67;13.50;;;23.50;39.90;;;;;;5047762;28;45414;-50
2021/01/06 08:39:16;;;;;;;28.67;19.55;;;23.50;39.90;;;;;;5059276;28;46072;-50
2021/01/06 08:41:43;;;;;;;22.30;15.70;;;23.40;39.00;;;;;;5051554;28;45458;-50
2021/01/06 08:44:41;;;;;;;17.50;12.75;;;23.30;39.80;;;;;;5068692;28;45370;-50
2021/01/06 08:47:09;;;;;;;18.40;12.90;;;23.40;41.10;;;;;;5085944;27;45404;-50
2021/01/06 08:49:45;;;;;;;17.85;12.38;;;23.40;41.50;;;;;;5085496;28;45399;-50
2021/01/06 08:52:16;;;;;;;17.63;13.20;;;23.30;41.90;;;;;;5048871;28;45352;-50
2021/01/06 08:54:43;;;;;;;16.70;12.00;;;23.30;40.80;;;;;;5071474;28;45781;-50
2021/01/06 08:57:32;;;;;;;18.30;13.00;;;23.30;40.80;;;;;;5071036;28;45316;-50
2021/01/06 09:00:17;;;;;;;18.40;13.20;;;23.20;42.10;;;;;;5088107;27;46381;-49
2021/01/06 09:03:06;;;;;;;21.02;13.27;;;23.20;41.30;;;;;;5056636;28;45439;-49
2021/01/06 09:05:51;;;;;;;20.05;13.68;;;23.20;40.60;;;;;;5071811;27;45500;-53
2021/01/06 09:08:16;;;;;;;19.10;12.60;;;23.20;40.30;;;;;;5071496;28;45500;-50
2021/01/06 09:11:07;;;;;;;17.42;13.15;;;23.20;41.40;;;;;;5073529;28;46091;-51
2021/01/06 09:13:50;;;;;;;20.00;11.10;;;23.20;41.40;;;;;;5083688;27;45561;-52
2021/01/06 09:16:20;;;;;;;18.23;10.80;;;23.20;41.90;;;;;;5089889;28;45392;-52
2021/01/06 09:18:51;;;;;;;14.68;9.68;;;23.20;43.80;;;;;;5073953;28;45628;-52
2021/01/06 09:21:30;;;;;;;19.35;9.65;;;23.20;44.60;;;;;;5073186;28;47220;-53
2021/01/06 09:24:04;;;;;;;17.05;10.15;;;23.40;44.30;;;;;;5073214;28;45752;-53
2021/01/06 09:26:29;;;;;;;14.30;9.70;;;23.50;44.10;;;;;;5089653;28;45314;-51
2021/01/06 09:29:07;;;;;;;15.02;9.48;;;23.70;44.00;;;;;;5065090;28;45684;-51
2021/01/06 09:31:52;;;;;;;12.52;8.93;;;23.80;44.00;;;;;;5053071;28;47355;-54
2021/01/06 09:34:26;;;;;;;15.27;9.38;;;23.90;44.00;;;;;;5086770;28;45420;-53
2021/01/06 09:36:51;;;;;;;13.10;8.23;;;23.90;44.50;;;;;;5089942;28;45340;-51
2021/01/06 09:39:19;;;;;;;15.80;9.20;;;23.80;44.60;;;;;;5083445;27;45629;-50
2021/01/06 09:41:45;;;;;;;14.70;8.85;;;23.90;44.60;;;;;;5093080;27;47090;-50
2021/01/06 09:44:10;;;;;;;10.55;7.40;;;23.90;44.60;;;;;;5091661;27;45345;-50
2021/01/06 09:46:56;;;;;;;12.02;8.65;;;24.00;44.70;;;;;;5056366;28;45410;-50
2021/01/06 09:49:26;;;;;;;12.43;8.15;;;24.10;44.60;;;;;;5072704;28;45436;-49
2021/01/06 09:51:53;;;;;;;12.38;7.43;;;24.20;44.60;;;;;;5053143;28;46361;-51
2021/01/06 09:54:18;;;;;;;13.63;7.97;;;24.20;44.60;;;;;;5053150;28;45467;-51
2021/01/06 09:56:44;;;;;;;11.57;7.82;;;24.30;44.70;;;;;;5051924;28;45344;-51
2021/01/06 09:59:21;;;;;;;12.13;7.55;;;24.30;44.70;;;;;;5063723;28;45378;-53
2021/01/06 10:01:59;;;;;;;12.63;8.27;;;24.30;44.80;;;;;;5070674;28;46426;-51
2021/01/06 10:04:26;;;;;;;11.32;7.40;;;24.30;44.90;;;;;;5058357;28;45458;-52
2021/01/06 10:07:11;;;;;;;12.77;7.63;;;24.30;44.90;;;;;;5072080;28;45377;-53
2021/01/06 10:09:42;;;;;;;11.95;7.32;;;24.40;45.00;;;;;;5089108;27;45777;-53
2021/01/06 10:12:42;;;;;;;10.48;7.75;;;24.40;44.90;;;;;;5088998;28;45529;-51
2021/01/06 10:15:16;;;;;;;10.65;7.03;;;24.40;44.90;;;;;;5088507;28;45280;-53
2021/01/06 10:18:01;;;;;;;12.15;8.70;;;24.40;45.00;;;;;;5083692;27;45389;-53
2021/01/06 10:20:36;;;;;;;13.25;9.80;;;24.20;45.00;;;;;;5069663;28;45467;-53
2021/01/06 10:23:22;;;;;;;;;;;24.10;45.10;;;;;;5052070;28;46132;-53
2021/01/06 10:25:50;;;;;;;13.38;9.13;;;23.90;45.20;;;;;;5068070;28;45608;-55
2021/01/06 10:28:34;;;;;;;15.75;9.25;;;23.90;45.50;;;;;;5052098;28;45339;-56
2021/01/06 10:31:11;;;;;;;12.40;9.30;;;23.90;45.30;;;;;;5074519;28;45427;-55
2021/01/06 10:33:57;;;;;;;14.35;8.65;;;23.90;45.20;;;;;;5069628;28;45453;-54
2021/01/06 10:36:49;;;;;;;16.38;10.40;;;23.90;45.40;;;;;;5069232;28;45369;-53
2021/01/06 10:39:31;;;;;;;20.17;10.07;;;24.00;45.30;;;;;;5090131;27;45300;-53
2021/01/06 10:42:03;;;;;;;15.35;9.18;;;23.90;45.40;;;;;;5069048;28;45453;-53
2021/01/06 10:44:29;;;;;;;12.10;9.15;;;23.90;45.40;;;;;;5069496;28;45593;-59
2021/01/06 10:46:55;;;;;;;10.88;7.55;;;23.90;45.40;;;;;;5072288;28;45198;-54
2021/01/06 10:49:21;;;;;;;13.82;10.00;;;23.90;45.30;;;;;;5064787;28;45351;-53
2021/01/06 10:51:57;;;;;;;14.43;9.65;;;23.90;45.30;;;;;;5077450;28;45623;-53
2021/01/06 10:54:35;;;;;;;14.13;9.50;;;23.90;45.20;;;;;;5076386;28;47316;-53
2021/01/06 10:57:00;;;;;;;13.75;9.80;;;23.90;45.20;;;;;;5069212;28;45381;-53
2021/01/06 10:59:26;;;;;;;12.13;9.15;;;23.90;45.40;;;;;;5064837;28;45399;-53
2021/01/06 11:02:16;;;;;;;18.48;9.65;;;23.80;45.50;;;;;;5088293;28;45606;-51
2021/01/06 11:04:44;;;;;;;14.52;10.07;;;23.90;45.70;;;;;;5086587;28;46558;-51
2021/01/06 11:07:13;;;;;;;14.27;9.85;;;23.80;45.70;;;;;;5088417;27;45406;-52
2021/01/06 11:10:00;;;;;;;13.05;9.27;;;23.90;46.00;;;;;;5088606;27;45412;-53
2021/01/06 11:12:35;;;;;;;13.63;9.40;;;23.90;45.90;;;;;;5081219;27;46179;-54
2021/01/06 11:15:40;;;;;;;15.90;10.10;;;23.90;46.00;;;;;;5090225;27;47389;-53
2021/01/06 11:18:21;;;;;;;12.18;9.13;;;24.00;45.80;;;;;;5056893;28;45362;-53
2021/01/06 11:21:05;;;;;;;13.50;9.05;;;24.10;45.80;;;;;;5094973;27;45358;-51
2021/01/06 11:23:34;;;;;;;12.88;9.25;;;24.10;45.80;;;;;;5096020;27;45514;-51
2021/01/06 11:26:01;;;;;;;13.65;9.00;;;24.10;45.90;;;;;;5087382;27;46191;-51
2021/01/06 11:28:27;;;;;;;18.05;8.90;;;24.10;45.80;;;;;;5070800;27;46087;-50
2021/01/06 11:31:18;;;;;;;12.85;8.45;;;24.10;45.80;;;;;;5092282;27;45432;-51
2021/01/06 11:33:44;;;;;;;11.50;7.78;;;24.20;45.80;;;;;;5068185;28;45255;-54
2021/01/06 11:36:15;;;;;;;10.38;8.05;;;24.10;45.80;;;;;;5049384;28;45418;-53
2021/01/06 11:38:41;;;;;;;13.13;9.10;;;24.20;46.00;;;;;;5087238;28;45357;-54
2021/01/06 11:41:18;;;;;;;11.38;8.60;;;24.00;46.10;;;;;;5087505;28;45357;-50
2021/01/06 11:43:52;;;;;;;12.10;8.45;;;24.00;46.30;;;;;;5089053;27;45417;-51
2021/01/06 11:46:34;;;;;;;12.52;8.60;;;23.90;46.50;;;;;;5086974;28;46242;-51
2021/01/06 11:49:05;;;;;;;12.15;8.95;;;24.00;46.50;;;;;;5079712;28;45422;-54
2021/01/06 11:51:31;;;;;;;11.32;8.52;;;24.00;46.50;;;;;;5068767;28;45378;-52
2021/01/06 11:54:15;;;;;;;12.32;8.70;;;24.00;46.50;;;;;;5064366;28;45350;-51
2021/01/06 11:56:47;;;;;;;14.40;9.43;;;24.10;46.50;;;;;;5087963;27;46131;-51
2021/01/06 11:59:38;;;;;;;12.45;8.93;;;24.10;46.50;;;;;;5086445;28;45331;-53
2021/01/06 12:02:17;;;;;;;12.10;8.95;;;24.00;46.50;;;;;;5077387;28;45382;-52
2021/01/06 12:05:20;;;;;;;12.45;9.32;;;24.00;46.50;;;;;;5058505;27;45753;-52
2021/01/06 12:08:16;;;;;;;18.23;10.02;;;24.00;46.50;;;;;;5089634;27;45371;-52
2021/01/06 12:10:45;;;;;;;12.00;8.15;;;24.00;46.50;;;;;;5097152;27;45302;-51
2021/01/06 12:13:32;;;;;;;12.45;8.57;;;23.80;46.90;;;;;;5080891;27;45361;-52
2021/01/06 12:16:17;;;;;;;13.25;9.10;;;23.80;47.10;;;;;;5080058;28;46055;-51
2021/01/06 12:19:05;;;;;;;14.10;9.07;;;23.70;47.30;;;;;;5085028;28;46224;-51
2021/01/06 12:21:34;;;;;;;13.55;9.38;;;23.60;47.50;;;;;;5085481;28;45389;-51
2021/01/06 12:24:24;;;;;;;10.55;7.68;;;23.60;47.70;;;;;;5065410;28;45602;-51
2021/01/06 12:27:09;;;;;;;11.48;8.70;;;23.60;48.00;;;;;;5067242;28;45670;-52
2021/01/06 12:29:51;;;;;;;10.73;7.82;;;23.50;48.10;;;;;;5066948;28;46463;-51
2021/01/06 12:32:44;;;;;;;10.88;8.20;;;23.50;48.30;;;;;;5088516;28;45300;-50
2021/01/06 12:35:26;;;;;;;10.23;8.00;;;23.50;48.30;;;;;;5074090;28;45485;-51
2021/01/06 12:38:08;;;;;;;12.43;8.90;;;23.50;48.30;;;;;;5073808;28;45345;-51
2021/01/06 12:41:11;;;;;;;12.77;8.55;;;23.50;48.20;;;;;;5073106;28;47092;-51
2021/01/06 12:44:10;;;;;;;11.65;8.57;;;23.50;48.20;;;;;;5074521;28;45400;-51
2021/01/06 12:46:44;;;;;;;12.00;8.23;;;23.50;48.30;;;;;;5077757;28;45474;-51
2021/01/06 12:49:15;;;;;;;13.68;8.73;;;23.50;48.30;;;;;;5092968;28;45377;-51
2021/01/06 12:52:02;;;;;;;13.57;8.75;;;23.50;48.40;;;;;;5093920;27;46918;-51
2021/01/06 12:54:37;;;;;;;11.13;8.13;;;23.50;48.30;;;;;;5074308;28;45381;-51
2021/01/06 12:57:06;;;;;;;12.18;8.63;;;23.50;48.10;;;;;;5054838;28;45728;-51
2021/01/06 12:59:44;;;;;;;12.30;8.43;;;23.50;48.20;;;;;;5071773;28;45367;-50
2021/01/06 13:02:33;;;;;;;10.68;8.52;;;23.50;48.20;;;;;;5050649;28;46001;-52
2021/01/06 13:05:27;;;;;;;10.18;8.10;;;23.60;48.30;;;;;;5051984;28;45841;-50
2021/01/06 13:07:57;;;;;;;13.18;8.15;;;23.60;48.30;;;;;;5046684;28;45404;-51
2021/01/06 13:10:39;;;;;;;11.88;8.10;;;23.70;48.40;;;;;;5054856;28;45375;-55
2021/01/06 13:13:27;;;;;;;10.73;7.40;;;23.60;48.40;;;;;;5038589;28;46118;-51
2021/01/06 13:16:01;;;;;;;12.13;8.57;;;23.70;48.50;;;;;;5040589;28;45406;-50
2021/01/06 13:18:56;;;;;;;10.87;7.63;;;23.70;48.70;;;;;;5070899;28;45445;-50